Time;durP1;ratioP1;P1;durP2;ratioP2;P2;SDS_P1;SDS_P2;PMS_P1;PMS_P2;Temp;Humidity;BMP_temperature;BMP_pressure;BME280_temperature;BME280_humidity;BME280_pressure;Samples;Min_cycle;Max_cycle;Signal;HPM_P1;HPM_P2
2023/03/03 00:01:06;;;;;;;;;;;;;;;-0.38;75.73;101473.33;106164;1288;60507;-75
2023/03/03 00:03:52;;;;;;;;;;;;;;;-0.37;75.71;101472.15;106242;1288;74187;-76
2023/03/03 00:06:38;;;;;;;;;;;;;;;-0.37;75.67;101468.95;106215;1289;67492;-76
2023/03/03 00:09:24;;;;;;;;;;;;;;;-0.36;75.69;101470.69;106227;1288;73160;-75
2023/03/03 00:12:24;;;;;;;;;;;;;;;-0.35;75.59;101469.73;106179;1291;59896;-76
2023/03/03 00:15:17;;;;;;;;;;;;;;;-0.36;75.60;101467.48;106177;1293;60175;-76
2023/03/03 00:18:12;;;;;;;;;;;;;;;-0.36;75.63;101472.91;106143;1289;76104;-75
2023/03/03 00:21:02;;;;;;;;;;;;;;;-0.36;75.62;101471.55;106277;1289;68434;-76
2023/03/03 00:23:48;;;;;;;;;;;;;;;-0.38;75.63;101473.02;106070;1288;72555;-76
2023/03/03 00:26:35;;;;;;;;;;;;;;;-0.40;75.55;101470.04;106249;1289;59805;-76
2023/03/03 00:29:50;;;;;;;;;;;;;;;-0.43;75.63;101471.43;106095;1289;60053;-76
2023/03/03 00:32:41;;;;;;;;;;;;;;;-0.43;75.71;101472.60;104516;1295;75738;-77
2023/03/03 00:35:29;;;;;;;;;;;;;;;-0.44;75.64;101478.84;104493;1294;71376;-76
2023/03/03 00:38:18;;;;;;;;;;;;;;;-0.46;75.61;101473.84;104514;1299;74006;-77
2023/03/03 00:41:15;;;;;;;;;;;;;;;-0.47;75.66;101476.16;104373;1294;62127;-77
2023/03/03 00:44:21;;;;;;;;;;;;;;;-0.48;75.73;101469.66;104481;1295;62095;-77
2023/03/03 00:47:16;;;;;;;;;;;;;;;-0.48;75.71;101466.80;104546;1296;74859;-77
2023/03/03 00:50:22;;;;;;;;;;;;;;;-0.49;75.77;101459.83;104533;1299;68659;-77
2023/03/03 00:53:19;;;;;;;;;;;;;;;-0.52;75.71;101452.41;103986;1306;71530;-77
2023/03/03 00:56:05;;;;;;;;;;;;;;;-0.57;75.68;101444.44;103998;1302;62101;-77
2023/03/03 00:58:52;;;;;;;;;;;;;;;-0.59;75.73;101450.95;103945;1303;62054;-77
2023/03/03 01:01:38;;;;;;;;;;;;;;;-0.61;75.77;101452.39;103973;1305;74278;-76
2023/03/03 01:04:24;;;;;;;;;;;;;;;-0.61;75.87;101451.35;103932;1307;68451;-76
2023/03/03 01:07:12;;;;;;;;;;;;;;;-0.61;75.92;101447.48;103943;1305;72584;-77
2023/03/03 01:09:58;;;;;;;;;;;;;;;-0.60;75.90;101445.47;104303;1299;62087;-77
2023/03/03 01:12:44;;;;;;;;;;;;;;;-0.60;75.86;101442.77;104417;1296;61929;-77
2023/03/03 01:15:31;;;;;;;;;;;;;;;-0.63;75.85;101440.45;104434;1301;75728;-77
2023/03/03 01:18:17;;;;;;;;;;;;;;;-0.66;75.87;101438.14;104321;1297;69703;-76
2023/03/03 01:21:04;;;;;;;;;;;;;;;-0.65;75.93;101429.20;105355;1300;71491;-76
2023/03/03 01:23:50;;;;;;;;;;;;;;;-0.64;75.94;101419.08;105473;1296;60059;-77
2023/03/03 01:26:36;;;;;;;;;;;;;;;-0.61;75.96;101418.00;105416;1296;60033;-77
2023/03/03 01:29:22;;;;;;;;;;;;;;;-0.61;75.87;101422.43;105468;1296;74138;-77
2023/03/03 01:32:08;;;;;;;;;;;;;;;-0.59;75.92;101422.33;106106;1288;67455;-77
2023/03/03 01:34:55;;;;;;;;;;;;;;;-0.58;75.95;101417.65;104962;1288;71313;-77
2023/03/03 01:37:41;;;;;;;;;;;;;;;-0.57;75.82;101412.74;105112;1290;60091;-77
2023/03/03 01:40:28;;;;;;;;;;;;;;;-0.59;75.90;101407.74;105070;1291;61978;-77
2023/03/03 01:43:14;;;;;;;;;;;;;;;-0.61;75.91;101407.01;105121;1288;74045;-77
2023/03/03 01:46:21;;;;;;;;;;;;;;;-0.63;75.91;101405.91;105056;1288;68893;-77
2023/03/03 01:49:11;;;;;;;;;;;;;;;-0.66;75.96;101401.58;104442;1298;71162;-77
2023/03/03 01:52:00;;;;;;;;;;;;;;;-0.67;75.86;101411.99;104382;1298;60313;-77
2023/03/03 01:54:49;;;;;;;;;;;;;;;-0.73;75.78;101416.00;104359;1296;62114;-77
2023/03/03 01:57:38;;;;;;;;;;;;;;;-0.80;75.81;101410.95;104415;1294;74009;-77
2023/03/03 02:00:25;;;;;;;;;;;;;;;-0.82;75.81;101418.13;104410;1298;67715;-77
2023/03/03 02:03:11;;;;;;;;;;;;;;;-0.85;75.94;101423.77;104439;1296;71581;-77
2023/03/03 02:05:59;;;;;;;;;;;;;;;-0.85;76.01;101420.20;104415;1297;62273;-76
2023/03/03 02:09:06;;;;;;;;;;;;;;;-0.84;75.99;101423.11;104403;1295;61414;-76
2023/03/03 02:11:54;;;;;;;;;;;;;;;-0.83;76.10;101422.84;103884;1305;74274;-77
2023/03/03 02:14:40;;;;;;;;;;;;;;;-0.84;75.98;101413.30;103838;1303;70119;-77
2023/03/03 02:17:26;;;;;;;;;;;;;;;-0.86;76.03;101425.41;103896;1302;70384;-76
2023/03/03 02:20:34;;;;;;;;;;;;;;;-0.86;76.04;101424.56;103871;1302;60455;-76
2023/03/03 02:23:47;;;;;;;;;;;;;;;-0.86;76.15;101428.77;103887;1309;61960;-76
2023/03/03 02:26:35;;;;;;;;;;;;;;;-0.85;76.06;101423.41;103712;1302;75388;-76
2023/03/03 02:29:21;;;;;;;;;;;;;;;-0.86;76.05;101412.21;103872;1308;67704;-76
2023/03/03 02:32:07;;;;;;;;;;;;;;;-0.85;76.09;101416.66;103960;1302;71490;-77
2023/03/03 02:34:53;;;;;;;;;;;;;;;-0.86;76.05;101412.02;103901;1302;62000;-77
2023/03/03 02:37:40;;;;;;;;;;;;;;;-0.88;76.02;101407.55;103882;1302;62114;-76
2023/03/03 02:40:30;;;;;;;;;;;;;;;-0.91;76.01;101414.18;103830;1302;74035;-77
2023/03/03 02:43:18;;;;;;;;;;;;;;;-0.92;76.10;101424.47;103858;1305;68274;-76
2023/03/03 02:46:05;;;;;;;;;;;;;;;-0.93;76.07;101424.77;103908;1302;72123;-76
2023/03/03 02:48:51;;;;;;;;;;;;;;;-0.93;76.14;101427.80;104010;1296;62004;-76
2023/03/03 02:51:37;;;;;;;;;;;;;;;-0.92;76.13;101431.20;104328;1297;60185;-76
2023/03/03 02:54:25;;;;;;;;;;;;;;;-0.94;76.15;101435.88;104181;1296;260121;-76
2023/03/03 02:57:11;;;;;;;;;;;;;;;-0.94;76.20;101427.92;104413;1301;68172;-76
2023/03/03 02:59:58;;;;;;;;;;;;;;;-0.93;76.18;101414.79;104352;1295;71430;-76
2023/03/03 03:02:44;;;;;;;;;;;;;;;-0.93;76.21;101418.00;104429;1302;62139;-76
2023/03/03 03:05:30;;;;;;;;;;;;;;;-0.93;76.18;101410.72;104942;1291;60449;-76
2023/03/03 03:08:16;;;;;;;;;;;;;;;-0.94;76.19;101408.33;104983;1290;75400;-76
2023/03/03 03:11:04;;;;;;;;;;;;;;;-0.92;76.34;101396.55;104955;1289;67239;-76
2023/03/03 03:13:51;;;;;;;;;;;;;;;-0.91;76.27;101396.95;104874;1289;74630;-76
2023/03/03 03:16:38;;;;;;;;;;;;;;;-0.90;76.27;101406.27;104991;1290;61926;-76
2023/03/03 03:19:24;;;;;;;;;;;;;;;-0.91;76.30;101399.27;104936;1293;60712;-76
2023/03/03 03:22:10;;;;;;;;;;;;;;;-0.93;76.32;101397.35;104874;1290;74888;-76
2023/03/03 03:24:56;;;;;;;;;;;;;;;-0.92;76.39;101392.16;104883;1290;67564;-76
2023/03/03 03:27:42;;;;;;;;;;;;;;;-0.90;76.33;101393.25;104879;1289;74069;-76
2023/03/03 03:30:29;;;;;;;;;;;;;;;-0.91;76.32;101383.39;104894;1290;60521;-76
2023/03/03 03:33:15;;;;;;;;;;;;;;;-0.94;76.27;101387.31;104921;1289;61991;-76
2023/03/03 03:36:02;;;;;;;;;;;;;;;-0.96;76.24;101381.29;104883;1289;76196;-76
2023/03/03 03:38:48;;;;;;;;;;;;;;;-0.95;76.35;101387.94;104889;1290;67770;-75
2023/03/03 03:41:34;;;;;;;;;;;;;;;-0.95;76.30;101390.48;105022;1291;71278;-76
2023/03/03 03:44:22;;;;;;;;;;;;;;;-0.98;76.31;101390.86;104909;1291;60515;-76
2023/03/03 03:47:08;;;;;;;;;;;;;;;-1.00;76.36;101390.27;104876;1293;63050;-76
2023/03/03 03:49:54;;;;;;;;;;;;;;;-1.00;76.31;101388.58;105019;1288;73193;-76
2023/03/03 03:52:42;;;;;;;;;;;;;;;-1.01;76.29;101383.98;105107;1288;71304;-76
2023/03/03 03:55:28;;;;;;;;;;;;;;;-1.02;76.37;101381.23;105073;1288;70666;-76
2023/03/03 03:58:16;;;;;;;;;;;;;;;-1.02;76.31;101382.41;105015;1288;63187;-76
2023/03/03 04:01:04;;;;;;;;;;;;;;;-1.02;76.34;101380.41;105057;1288;60316;-75
2023/03/03 04:03:50;;;;;;;;;;;;;;;-1.01;76.42;101370.94;105005;1288;75961;-75
2023/03/03 04:06:36;;;;;;;;;;;;;;;-1.00;76.44;101363.73;104960;1288;67262;-75
2023/03/03 04:09:22;;;;;;;;;;;;;;;-1.00;76.36;101369.98;104993;1288;71288;-75
2023/03/03 04:12:08;;;;;;;;;;;;;;;-1.02;76.37;101373.12;104938;1287;60612;-75
2023/03/03 04:14:54;;;;;;;;;;;;;;;-1.04;76.34;101379.98;105084;1290;61981;-75
2023/03/03 04:17:41;;;;;;;;;;;;;;;-1.04;76.36;101378.95;105075;1288;75596;-76
2023/03/03 04:20:27;;;;;;;;;;;;;;;-1.04;76.42;101379.15;105058;1288;68620;-76
2023/03/03 04:23:13;;;;;;;;;;;;;;;-1.01;76.47;101376.20;105046;1292;71205;-76
2023/03/03 04:25:59;;;;;;;;;;;;;;;-1.00;76.42;101372.52;105012;1288;60839;-76
2023/03/03 04:28:45;;;;;;;;;;;;;;;-1.02;76.44;101373.30;104962;1288;60430;-76
2023/03/03 04:31:32;;;;;;;;;;;;;;;-1.02;76.44;101367.52;105152;1288;74084;-75
2023/03/03 04:34:18;;;;;;;;;;;;;;;-1.01;76.51;101367.09;105016;1288;69307;-76
2023/03/03 04:37:04;;;;;;;;;;;;;;;-1.00;76.55;101369.28;105031;1288;71162;-76
2023/03/03 04:39:50;;;;;;;;;;;;;;;-0.98;76.50;101369.03;105098;1288;62085;-76
2023/03/03 04:42:37;;;;;;;;;;;;;;;-0.98;76.56;101363.64;105076;1291;62640;-76
2023/03/03 04:45:23;;;;;;;;;;;;;;;-0.97;76.56;101368.58;105066;1288;76892;-76
2023/03/03 04:48:09;;;;;;;;;;;;;;;-0.96;76.49;101371.66;105023;1288;67304;-76
2023/03/03 04:50:55;;;;;;;;;;;;;;;-0.95;76.59;101376.42;104982;1293;73996;-76
2023/03/03 04:53:41;;;;;;;;;;;;;;;-0.95;76.56;101375.58;105024;1288;60604;-76
2023/03/03 04:56:30;;;;;;;;;;;;;;;-0.95;76.63;101357.14;105069;1288;62058;-76
2023/03/03 04:59:16;;;;;;;;;;;;;;;-0.95;76.59;101347.02;104983;1291;74279;-76
2023/03/03 05:02:04;;;;;;;;;;;;;;;-0.93;76.59;101343.36;105095;1287;67315;-76
2023/03/03 05:04:50;;;;;;;;;;;;;;;-0.92;76.65;101335.63;105083;1288;71276;-76
2023/03/03 05:07:37;;;;;;;;;;;;;;;-0.90;76.70;101335.71;105062;1288;62076;-76
2023/03/03 05:10:23;;;;;;;;;;;;;;;-0.90;76.58;101335.89;105047;1290;61883;-76
2023/03/03 05:13:09;;;;;;;;;;;;;;;-0.91;76.59;101337.02;105154;1290;75263;-76
2023/03/03 05:15:56;;;;;;;;;;;;;;;-0.93;76.45;101340.15;105199;1288;69465;-74
2023/03/03 05:18:42;;;;;;;;;;;;;;;-0.96;76.56;101351.37;105133;1288;71207;-74
2023/03/03 05:21:28;;;;;;;;;;;;;;;-0.96;76.64;101350.83;105065;1288;63999;-74
2023/03/03 05:24:14;;;;;;;;;;;;;;;-0.96;76.60;101359.31;105135;1287;60432;-74
2023/03/03 05:27:02;;;;;;;;;;;;;;;-0.96;76.62;101361.17;105184;1288;74992;-74
2023/03/03 05:29:48;;;;;;;;;;;;;;;-0.98;76.54;101368.02;105139;1288;67277;-74
2023/03/03 05:32:34;;;;;;;;;;;;;;;-1.01;76.52;101373.65;105150;1290;70543;-75
2023/03/03 05:35:20;;;;;;;;;;;;;;;-1.02;76.56;101381.40;105118;1288;61082;-75
2023/03/03 05:38:06;;;;;;;;;;;;;;;-1.02;76.68;101398.16;105137;1288;60862;-74
2023/03/03 05:40:53;;;;;;;;;;;;;;;-0.99;76.69;101399.45;105163;1288;77103;-74
2023/03/03 05:43:39;;;;;;;;;;;;;;;-0.98;76.59;101405.25;104954;1288;67346;-73
2023/03/03 05:46:26;;;;;;;;;;;;;;;-0.99;76.66;101402.66;105105;1288;71261;-74
2023/03/03 05:49:12;;;;;;;;;;;;;;;-0.97;76.65;101389.70;105040;1289;62099;-74
2023/03/03 05:51:59;;;;;;;;;;;;;;;-0.96;76.74;101376.24;105111;1288;60064;-74
2023/03/03 05:54:45;;;;;;;;;;;;;;;-0.94;76.68;101374.30;105029;1288;75190;-74
2023/03/03 05:57:31;;;;;;;;;;;;;;;-0.95;76.60;101370.51;105035;1290;68528;-73
2023/03/03 06:00:17;;;;;;;;;;;;;;;-0.97;76.50;101375.84;105000;1288;72090;-72
2023/03/03 06:03:04;;;;;;;;;;;;;;;-0.97;76.63;101387.70;105029;1287;60507;-72
2023/03/03 06:05:50;;;;;;;;;;;;;;;-0.95;76.66;101388.45;105105;1291;62483;-72
2023/03/03 06:08:36;;;;;;;;;;;;;;;-0.94;76.73;101395.61;105078;1290;74090;-72
2023/03/03 06:11:22;;;;;;;;;;;;;;;-0.93;76.69;101394.47;104935;1287;66673;-72
2023/03/03 06:14:08;;;;;;;;;;;;;;;-0.92;76.75;101396.73;105090;1288;73591;-72
2023/03/03 06:16:56;;;;;;;;;;;;;;;-0.89;76.70;101398.52;105054;1288;60148;-72
2023/03/03 06:19:42;;;;;;;;;;;;;;;-0.88;76.66;101398.25;105132;1290;60271;-72
2023/03/03 06:22:29;;;;;;;;;;;;;;;-0.87;76.62;101399.31;105040;1288;75742;-72
2023/03/03 06:25:15;;;;;;;;;;;;;;;-0.88;76.64;101401.77;106099;1288;67219;-72
2023/03/03 06:28:01;;;;;;;;;;;;;;;-0.88;76.63;101402.80;106142;1287;71313;-72
2023/03/03 06:30:47;;;;;;;;;;;;;;;-0.88;76.68;101402.64;106169;1288;59894;-73
2023/03/03 06:33:33;;;;;;;;;;;;;;;-0.85;76.77;101402.08;106160;1287;60363;-73
2023/03/03 06:36:19;;;;;;;;;;;;;;;-0.82;76.80;101405.45;106036;1288;74186;-73
2023/03/03 06:39:05;;;;;;;;;;;;;;;-0.81;76.60;101400.55;106071;1288;68810;-72
2023/03/03 06:41:51;;;;;;;;;;;;;;;-0.82;76.64;101400.70;106097;1287;71378;-72
2023/03/03 06:44:37;;;;;;;;;;;;;;;-0.81;76.74;101399.58;106116;1288;60241;-72
2023/03/03 06:47:23;;;;;;;;;;;;;;;-0.77;76.80;101401.59;106180;1287;59873;-73
2023/03/03 06:50:10;;;;;;;;;;;;;;;-0.72;76.85;101402.14;106105;1289;74497;-74
2023/03/03 06:53:01;;;;;;;;;;;;;;;-0.68;76.77;101401.81;105113;1288;68552;-73
2023/03/03 06:55:47;;;;;;;;;;;;;;;-0.68;76.79;101389.97;105052;1291;71205;-73
2023/03/03 06:58:34;;;;;;;;;;;;;;;-0.66;76.80;101389.02;105149;1288;61875;-73
2023/03/03 07:01:20;;;;;;;;;;;;;;;-0.66;76.89;101398.84;105029;1288;60159;-73
2023/03/03 07:04:15;;;;;;;;;;;;;;;-0.63;76.87;101406.40;105141;1288;75160;-73
2023/03/03 07:07:21;;;;;;;;;;;;;;;-0.62;76.92;101405.27;105149;1288;67245;-73
2023/03/03 07:10:36;;;;;;;;;;;;;;;-0.61;76.93;101405.48;105160;1287;73146;-73
2023/03/03 07:13:23;;;;;;;;;;;;;;;-0.61;76.87;101406.83;105133;1289;60461;-73
2023/03/03 07:16:11;;;;;;;;;;;;;;;-0.60;76.91;101407.54;105119;1288;61862;-73
2023/03/03 07:19:04;;;;;;;;;;;;;;;-0.60;76.93;101415.35;105167;1288;74148;-73
2023/03/03 07:21:51;;;;;;;;;;;;;;;-0.58;76.87;101422.22;105131;1287;68228;-73
2023/03/03 07:24:37;;;;;;;;;;;;;;;-0.56;76.97;101425.34;105059;1288;71291;-73
2023/03/03 07:27:25;;;;;;;;;;;;;;;-0.54;76.95;101434.89;105064;1292;62147;-73
2023/03/03 07:30:11;;;;;;;;;;;;;;;-0.51;77.02;101437.89;105187;1288;64488;-73
2023/03/03 07:32:57;;;;;;;;;;;;;;;-0.47;77.00;101439.40;105237;1290;74171;-73
2023/03/03 07:35:43;;;;;;;;;;;;;;;-0.46;77.03;101440.30;104990;1287;69999;-73
2023/03/03 07:38:33;;;;;;;;;;;;;;;-0.45;76.93;101440.52;105151;1290;71522;-73
2023/03/03 07:41:22;;;;;;;;;;;;;;;-0.45;76.99;101442.22;105174;1287;62047;-73
2023/03/03 07:44:18;;;;;;;;;;;;;;;-0.41;77.06;101443.05;105016;1290;60258;-73
2023/03/03 07:47:39;;;;;;;;;;;;;;;-0.38;76.97;101447.73;105166;1287;74484;-73
2023/03/03 07:50:25;;;;;;;;;;;;;;;-0.37;77.02;101447.98;104594;1294;67346;-73
2023/03/03 07:53:17;;;;;;;;;;;;;;;-0.34;77.02;101448.58;104499;1294;71792;-73
2023/03/03 07:56:21;;;;;;;;;;;;;;;-0.32;77.11;101448.84;104783;1294;60492;-73
2023/03/03 07:59:19;;;;;;;;;;;;;;;-0.28;77.08;101447.48;104483;1294;60732;-73
2023/03/03 08:02:18;;;;;;;;;;;;;;;-0.27;77.14;101445.30;104385;1294;75935;-73
2023/03/03 08:05:23;;;;;;;;;;;;;;;-0.23;77.15;101451.57;104592;1294;67303;-73
2023/03/03 08:08:09;;;;;;;;;;;;;;;-0.20;77.14;101455.09;104496;1294;71568;-73
2023/03/03 08:10:56;;;;;;;;;;;;;;;-0.19;77.13;101461.40;104464;1294;62141;-73
2023/03/03 08:13:44;;;;;;;;;;;;;;;-0.18;77.11;101461.27;104539;1294;64295;-73
2023/03/03 08:16:36;;;;;;;;;;;;;;;-0.16;77.19;101464.23;104548;1294;75228;-73
2023/03/03 08:19:22;;;;;;;;;;;;;;;-0.14;77.29;101458.08;104492;1294;69253;-73
2023/03/03 08:22:12;;;;;;;;;;;;;;;-0.12;77.17;101456.11;104415;1294;71439;-73
2023/03/03 08:24:58;;;;;;;;;;;;;;;-0.08;77.26;101447.78;104862;1290;60466;-73
2023/03/03 08:27:44;;;;;;;;;;;;;;;-0.06;77.22;101452.80;105044;1288;62026;-73
2023/03/03 08:30:30;;;;;;;;;;;;;;;-0.04;77.19;101445.61;105089;1288;73978;-73
2023/03/03 08:33:17;;;;;;;;;;;;;;;-0.01;77.20;101438.77;105120;1288;69986;-72
2023/03/03 08:36:04;;;;;;;;;;;;;;;0.02;77.20;101437.14;104887;1288;71264;-72
2023/03/03 08:38:50;;;;;;;;;;;;;;;0.02;77.24;101436.11;105054;1287;60894;-73
2023/03/03 08:41:36;;;;;;;;;;;;;;;0.05;77.33;101424.55;104984;1288;61964;-73
2023/03/03 08:44:22;;;;;;;;;;;;;;;0.08;77.36;101417.04;105085;1287;75698;-73
2023/03/03 08:47:08;;;;;;;;;;;;;;;0.12;77.36;101422.98;105113;1288;68503;-73
2023/03/03 08:49:54;;;;;;;;;;;;;;;0.17;77.42;101423.33;105153;1288;73054;-73
2023/03/03 08:52:40;;;;;;;;;;;;;;;0.20;77.45;101427.88;104986;1287;60249;-73
2023/03/03 08:55:26;;;;;;;;;;;;;;;0.24;77.39;101435.83;105144;1288;61949;-73
2023/03/03 08:58:13;;;;;;;;;;;;;;;0.28;77.40;101441.73;105145;1290;74103;-73
2023/03/03 09:01:00;;;;;;;;;;;;;;;0.31;77.42;101444.25;105066;1287;69495;-73
2023/03/03 09:03:46;;;;;;;;;;;;;;;0.34;77.38;101442.33;105018;1288;71318;-73
2023/03/03 09:06:32;;;;;;;;;;;;;;;0.36;77.34;101446.60;105095;1287;61964;-73
2023/03/03 09:09:18;;;;;;;;;;;;;;;0.36;77.32;101444.27;104983;1287;60206;-73
2023/03/03 09:12:18;;;;;;;;;;;;;;;0.36;77.26;101444.08;105101;1286;73980;-73
2023/03/03 09:15:23;;;;;;;;;;;;;;;0.37;77.28;101438.00;105162;1288;68106;-73
2023/03/03 09:18:16;;;;;;;;;;;;;;;0.38;77.30;101438.55;105179;1290;71481;-73
2023/03/03 09:21:15;;;;;;;;;;;;;;;0.41;77.41;101433.61;105164;1287;62336;-73
2023/03/03 09:24:01;;;;;;;;;;;;;;;0.47;77.48;101433.16;105067;1288;59825;-73
2023/03/03 09:26:47;;;;;;;;;;;;;;;0.49;77.41;101431.38;105165;1287;75143;-73
2023/03/03 09:29:37;;;;;;;;;;;;;;;0.54;77.52;101434.57;105187;1290;68985;-73
2023/03/03 09:32:30;;;;;;;;;;;;;;;0.60;77.50;101435.97;105084;1287;72210;-73
2023/03/03 09:35:34;;;;;;;;;;;;;;;0.65;77.50;101438.37;105131;1288;61976;-73
2023/03/03 09:38:25;;;;;;;;;;;;;;;0.69;77.47;101444.13;105129;1288;61835;-73
2023/03/03 09:41:31;;;;;;;;;;;;;;;0.72;77.55;101440.52;105115;1288;75025;-73
2023/03/03 09:44:17;;;;;;;;;;;;;;;0.76;77.49;101436.91;104409;1296;67476;-73
2023/03/03 09:47:18;;;;;;;;;;;;;;;0.80;77.48;101432.48;104469;1296;71384;-73
2023/03/03 09:50:07;;;;;;;;;;;;;;;0.84;77.48;101435.70;104429;1296;62091;-73
2023/03/03 09:53:23;;;;;;;;;;;;;;;0.87;77.45;101438.88;104413;1296;61922;-73
2023/03/03 09:56:09;;;;;;;;;;;;;;;0.91;77.56;101441.73;104027;1301;74279;-73
2023/03/03 09:58:58;;;;;;;;;;;;;;;0.97;77.60;101445.02;103968;1302;67745;-73
2023/03/03 10:02:07;;;;;;;;;;;;;;;1.02;77.55;101436.86;103977;1301;72962;-73
2023/03/03 10:05:32;;;;;;;;;;;;;;;1.04;77.52;101435.55;103267;1310;60612;-73
2023/03/03 10:08:21;;;;;;;;;;;;;;;1.06;77.52;101433.08;102968;1314;61915;-73
2023/03/03 10:11:27;;;;;;;;;;;;;;;1.08;77.43;101435.19;102973;1311;75110;-73
2023/03/03 10:14:22;;;;;;;;;;;;;;;1.08;77.46;101439.91;102528;1316;67412;-73
2023/03/03 10:17:16;;;;;;;;;;;;;;;1.05;77.47;101433.36;102448;1316;71420;-73
2023/03/03 10:20:08;;;;;;;;;;;;;;;1.05;77.36;101434.73;102494;1317;62038;-73
2023/03/03 10:22:57;;;;;;;;;;;;;;;1.08;77.43;101430.75;102916;1311;60048;-73
2023/03/03 10:25:51;;;;;;;;;;;;;;;1.13;77.47;101431.45;102895;1314;78700;-73
2023/03/03 10:28:40;;;;;;;;;;;;;;;1.15;77.38;101431.52;103001;1314;67325;-73
2023/03/03 10:31:30;;;;;;;;;;;;;;;1.17;77.36;101432.63;102972;1314;71251;-73
2023/03/03 10:34:35;;;;;;;;;;;;;;;1.20;77.41;101432.21;103705;1310;62115;-73
2023/03/03 10:37:27;;;;;;;;;;;;;;;1.21;77.31;101427.30;103692;1308;62178;-73
2023/03/03 10:40:35;;;;;;;;;;;;;;;1.22;77.46;101430.42;104003;1301;74965;-73
2023/03/03 10:43:31;;;;;;;;;;;;;;;1.26;77.40;101431.41;104448;1295;67922;-73
2023/03/03 10:46:43;;;;;;;;;;;;;;;1.28;77.32;101432.48;104401;1302;71398;-73
2023/03/03 10:49:38;;;;;;;;;;;;;;;1.26;77.32;101432.42;104305;1299;62095;-73
2023/03/03 10:52:30;;;;;;;;;;;;;;;1.25;77.36;101425.08;104845;1289;59919;-73
2023/03/03 10:55:20;;;;;;;;;;;;;;;1.26;77.42;101422.57;104939;1290;75373;-73
2023/03/03 10:58:12;;;;;;;;;;;;;;;1.27;77.48;101419.70;105011;1290;71673;-73
2023/03/03 11:01:02;;;;;;;;;;;;;;;1.30;77.48;101411.83;104933;1289;71497;-73
2023/03/03 11:04:07;;;;;;;;;;;;;;;1.33;77.49;101403.95;104960;1291;61939;-73
2023/03/03 11:06:53;;;;;;;;;;;;;;;1.36;77.55;101402.36;104923;1291;61934;-73
2023/03/03 11:09:45;;;;;;;;;;;;;;;1.37;77.48;101395.58;97681;1293;10002175;-73
2023/03/03 11:12:38;;;;;;;;;;;;;;;1.37;77.42;101390.83;104964;1290;71689;-73
2023/03/03 11:15:34;;;;;;;;;;;;;;;1.38;77.41;101392.23;104952;1292;62163;-73
2023/03/03 11:18:38;;;;;;;;;;;;;;;1.39;77.46;101393.46;104964;1291;59809;-73
2023/03/03 11:21:31;;;;;;;;;;;;;;;1.41;77.38;101389.44;105009;1290;74060;-73
2023/03/03 11:24:22;;;;;;;;;;;;;;;1.44;77.51;101394.65;104955;1290;70351;-73
2023/03/03 11:27:08;;;;;;;;;;;;;;;1.47;77.46;101389.80;104949;1292;71168;-73
2023/03/03 11:30:01;;;;;;;;;;;;;;;1.46;77.45;101385.56;104919;1290;61101;-73
2023/03/03 11:32:51;;;;;;;;;;;;;;;1.49;77.41;101382.90;104832;1290;62036;-73
2023/03/03 11:35:53;;;;;;;;;;;;;;;1.53;77.45;101376.44;104953;1289;74621;-73
2023/03/03 11:38:59;;;;;;;;;;;;;;;1.56;77.48;101372.95;104866;1291;68378;-73
2023/03/03 11:42:15;;;;;;;;;;;;;;;1.56;77.30;101378.05;104929;1289;70274;-73
2023/03/03 11:45:05;;;;;;;;;;;;;;;1.54;77.38;101383.27;104405;1295;60332;-73
2023/03/03 11:47:57;;;;;;;;;;;;;;;1.55;77.45;101377.85;104435;1296;61960;-73
2023/03/03 11:51:05;;;;;;;;;;;;;;;1.56;77.43;101380.43;104459;1295;74632;-73
2023/03/03 11:54:03;;;;;;;;;;;;;;;1.59;77.48;101376.43;104554;1294;68561;-73
2023/03/03 11:56:51;;;;;;;;;;;;;;;1.58;77.38;101374.02;104525;1294;71407;-73
2023/03/03 11:59:48;;;;;;;;;;;;;;;1.57;77.33;101374.65;104500;1294;62132;-73
2023/03/03 12:02:53;;;;;;;;;;;;;;;1.56;77.39;101373.13;104533;1298;61949;-73
2023/03/03 12:06:00;;;;;;;;;;;;;;;1.57;77.38;101372.30;104554;1294;73165;-73
2023/03/03 12:09:04;;;;;;;;;;;;;;;1.60;77.41;101372.91;104499;1299;70565;-73
2023/03/03 12:12:05;;;;;;;;;;;;;;;1.62;77.39;101367.68;104521;1294;70159;-73
2023/03/03 12:15:03;;;;;;;;;;;;;;;1.63;77.39;101363.46;104534;1294;62440;-73
2023/03/03 12:18:08;;;;;;;;;;;;;;;1.65;77.43;101361.99;104596;1299;61914;-73
2023/03/03 12:21:30;;;;;;;;;;;;;;;1.65;77.47;101359.45;104684;1291;73908;-73
2023/03/03 12:24:51;;;;;;;;;;;;;;;1.65;77.34;101359.63;104633;1294;68464;-73
2023/03/03 12:27:53;;;;;;;;;;;;;;;1.64;77.43;101357.39;104086;1303;71430;-73
2023/03/03 12:30:45;;;;;;;;;;;;;;;1.65;77.43;101351.14;103992;1303;60738;-73
2023/03/03 12:33:52;;;;;;;;;;;;;;;1.68;77.43;101351.56;104105;1300;60305;-73
2023/03/03 12:36:57;;;;;;;;;;;;;;;1.75;77.53;101352.45;103666;1306;73454;-73
2023/03/03 12:39:55;;;;;;;;;;;;;;;1.81;77.38;101350.61;103682;1305;71449;-73
2023/03/03 12:42:41;;;;;;;;;;;;;;;1.85;77.49;101351.27;103631;1305;71802;-72
2023/03/03 12:45:41;;;;;;;;;;;;;;;1.87;77.41;101355.91;103659;1305;62095;-72
2023/03/03 12:48:33;;;;;;;;;;;;;;;1.88;77.49;101352.20;103640;1306;60301;-72
2023/03/03 12:51:29;;;;;;;;;;;;;;;1.90;77.45;101350.91;103657;1311;73118;-72
2023/03/03 12:54:25;;;;;;;;;;;;;;;1.92;77.44;101351.14;103709;1306;70075;-72
2023/03/03 12:57:17;;;;;;;;;;;;;;;1.95;77.48;101356.35;103672;1306;71876;-72
2023/03/03 13:00:09;;;;;;;;;;;;;;;2.00;77.46;101354.43;103978;1301;62113;-72
2023/03/03 13:02:59;;;;;;;;;;;;;;;2.04;77.51;101343.50;104497;1297;62913;-72
2023/03/03 13:06:03;;;;;;;;;;;;;;;2.08;77.52;101340.56;104556;1295;74703;-72
2023/03/03 13:08:58;;;;;;;;;;;;;;;2.09;77.38;101340.23;104558;1296;68214;-72
2023/03/03 13:11:53;;;;;;;;;;;;;;;2.08;77.24;101341.23;104500;1295;71848;-72
2023/03/03 13:14:58;;;;;;;;;;;;;;;2.07;77.32;101343.61;104953;1290;60347;-73
2023/03/03 13:17:51;;;;;;;;;;;;;;;2.10;77.38;101342.13;105166;1288;59679;-73
2023/03/03 13:20:46;;;;;;;;;;;;;;;2.10;77.32;101338.07;105091;1289;76789;-73
2023/03/03 13:23:57;;;;;;;;;;;;;;;2.09;77.25;101335.65;105070;1288;69261;-73
2023/03/03 13:26:46;;;;;;;;;;;;;;;2.09;77.33;101333.42;105003;1288;79999;-72
2023/03/03 13:29:40;;;;;;;;;;;;;;;2.12;77.37;101335.23;105137;1289;61464;-73
2023/03/03 13:32:37;;;;;;;;;;;;;;;2.13;77.33;101328.30;105104;1293;61938;-72
2023/03/03 13:35:31;;;;;;;;;;;;;;;2.14;77.27;101330.19;105111;1289;75637;-73
2023/03/03 13:38:30;;;;;;;;;;;;;;;2.14;77.26;101327.46;105660;1288;67469;-73
2023/03/03 13:41:28;;;;;;;;;;;;;;;2.13;77.26;101323.86;105008;1293;71246;-73
2023/03/03 13:44:22;;;;;;;;;;;;;;;2.14;77.33;101324.22;105059;1288;61927;-72
2023/03/03 13:47:24;;;;;;;;;;;;;;;2.14;77.27;101319.81;105105;1289;64047;-72
2023/03/03 13:50:17;;;;;;;;;;;;;;;2.11;77.13;101313.42;105207;1288;74194;-72
2023/03/03 13:53:06;;;;;;;;;;;;;;;2.06;77.19;101310.92;105228;1288;67666;-73
2023/03/03 13:55:58;;;;;;;;;;;;;;;2.05;77.18;101307.51;104918;1290;73194;-72
2023/03/03 13:59:08;;;;;;;;;;;;;;;2.06;77.22;101304.29;105137;1289;60465;-72
2023/03/03 14:01:58;;;;;;;;;;;;;;;2.08;77.27;101305.34;105144;1288;61959;-73
2023/03/03 14:05:01;;;;;;;;;;;;;;;2.11;77.25;101303.22;105162;1288;75761;-73
2023/03/03 14:07:58;;;;;;;;;;;;;;;2.12;77.20;101300.19;105120;1293;68298;-72
2023/03/03 14:11:01;;;;;;;;;;;;;;;2.13;77.24;101298.18;104962;1288;71288;-72
2023/03/03 14:13:55;;;;;;;;;;;;;;;2.15;77.27;101298.06;105126;1288;62092;-73
2023/03/03 14:16:52;;;;;;;;;;;;;;;2.16;77.18;101300.81;105160;1290;61828;-73
2023/03/03 14:19:43;;;;;;;;;;;;;;;2.17;77.22;101300.52;105153;1289;74106;-72
2023/03/03 14:22:48;;;;;;;;;;;;;;;2.16;77.18;101297.08;106204;1288;67199;-73
2023/03/03 14:25:55;;;;;;;;;;;;;;;2.17;77.17;101296.08;105116;1290;72275;-73
2023/03/03 14:28:43;;;;;;;;;;;;;;;2.16;77.14;101292.65;105133;1288;62141;-72
2023/03/03 14:31:31;;;;;;;;;;;;;;;2.17;77.18;101290.47;105169;1287;60184;-72
2023/03/03 14:34:23;;;;;;;;;;;;;;;2.19;77.18;101286.11;105095;1290;73969;-72